createdAt,value
2022-07-29T00:00:53.463Z,20.2
2022-07-29T00:02:53.533Z,20.2
2022-07-29T00:03:53.510Z,20.2
2022-07-29T00:04:53.518Z,20.2
2022-07-29T00:05:53.473Z,20.1
2022-07-29T00:07:53.469Z,20.1
2022-07-29T00:08:53.501Z,20.1
2022-07-29T00:09:53.469Z,20.1
2022-07-29T00:10:53.480Z,20.1
2022-07-29T00:11:53.476Z,20.1
2022-07-29T00:12:53.467Z,20.1
2022-07-29T00:13:53.474Z,20.1
2022-07-29T00:15:53.477Z,20
2022-07-29T00:16:53.610Z,20.1
2022-07-29T00:17:53.497Z,20
2022-07-29T00:18:53.488Z,20.1
2022-07-29T00:19:53.517Z,20.1
2022-07-29T00:21:53.470Z,20.1
2022-07-29T00:22:53.487Z,20.1
2022-07-29T00:23:53.474Z,20
2022-07-29T00:24:53.484Z,20.1
2022-07-29T00:25:53.473Z,20.1
2022-07-29T00:26:53.494Z,20
2022-07-29T00:29:53.517Z,20
2022-07-29T00:30:53.476Z,19.9
2022-07-29T00:31:53.555Z,19.9
2022-07-29T00:32:53.498Z,19.9
2022-07-29T00:33:53.482Z,19.9
2022-07-29T00:34:53.476Z,19.9
2022-07-29T00:36:53.482Z,19.9
2022-07-29T00:37:53.480Z,19.9
2022-07-29T00:38:53.479Z,19.9
2022-07-29T00:39:53.492Z,20
2022-07-29T00:40:53.482Z,20
2022-07-29T00:41:53.485Z,19.9
2022-07-29T00:42:53.492Z,19.9
2022-07-29T00:43:53.486Z,20
2022-07-29T00:44:53.526Z,20
2022-07-29T00:45:53.494Z,20
2022-07-29T00:46:53.534Z,20
2022-07-29T00:47:53.499Z,19.9
2022-07-29T00:50:53.481Z,19.9
2022-07-29T00:51:53.486Z,19.8
2022-07-29T00:53:53.488Z,19.8
2022-07-29T00:54:53.481Z,19.8
2022-07-29T00:55:53.495Z,19.9
2022-07-29T00:57:53.494Z,19.9
2022-07-29T00:58:53.488Z,19.8
2022-07-29T00:59:53.485Z,19.9
2022-07-29T01:00:53.618Z,19.8
2022-07-29T01:01:53.542Z,19.9
2022-07-29T01:02:53.517Z,19.8
2022-07-29T01:04:53.502Z,19.9
2022-07-29T01:05:53.490Z,19.9
2022-07-29T01:06:53.506Z,19.8
2022-07-29T01:07:53.504Z,19.8
2022-07-29T01:08:53.493Z,19.8
2022-07-29T01:10:53.494Z,19.8
2022-07-29T01:11:53.496Z,19.8
2022-07-29T01:12:53.500Z,19.7
2022-07-29T01:14:53.501Z,19.8
2022-07-29T01:15:53.595Z,19.8
2022-07-29T01:16:53.493Z,19.8
2022-07-29T01:18:53.491Z,19.7
2022-07-29T01:19:53.518Z,19.8
2022-07-29T01:20:53.496Z,19.8
2022-07-29T01:21:53.495Z,19.8
2022-07-29T01:22:53.502Z,19.8
2022-07-29T01:23:53.536Z,19.8
2022-07-29T01:24:53.537Z,19.7
2022-07-29T01:25:55.787Z,19.7
2022-07-29T01:26:53.510Z,19.7
2022-07-29T01:28:53.511Z,19.6
2022-07-29T01:29:53.513Z,19.5
2022-07-29T01:30:53.504Z,19.6
2022-07-29T01:31:59.524Z,19.7
2022-07-29T01:32:53.512Z,19.6
2022-07-29T01:33:53.511Z,19.7
2022-07-29T01:37:53.518Z,19.6
2022-07-29T01:38:53.513Z,19.6
2022-07-29T01:39:53.515Z,19.6
2022-07-29T01:40:53.529Z,19.6
2022-07-29T01:41:53.507Z,19.6
2022-07-29T01:42:53.517Z,19.5
2022-07-29T01:43:53.526Z,19.6
2022-07-29T01:44:53.516Z,19.6
2022-07-29T01:45:53.527Z,19.6
2022-07-29T01:47:53.512Z,19.6
2022-07-29T01:49:53.522Z,19.5
2022-07-29T01:50:53.514Z,19.5
2022-07-29T01:51:53.516Z,19.5
2022-07-29T01:52:53.530Z,19.5
2022-07-29T01:53:53.518Z,19.4
2022-07-29T01:54:53.538Z,19.4
2022-07-29T01:57:53.518Z,19.4
2022-07-29T01:58:53.539Z,19.4
2022-07-29T01:59:53.528Z,19.4
2022-07-29T02:00:53.543Z,19.3
2022-07-29T02:01:54.522Z,19.3
2022-07-29T02:02:53.523Z,19.3
2022-07-29T02:03:53.515Z,19.2
2022-07-29T02:04:53.550Z,19.3
2022-07-29T02:05:53.534Z,19.3
2022-07-29T02:06:53.523Z,19.2
2022-07-29T02:07:53.527Z,19.3
2022-07-29T02:08:53.527Z,19.3
2022-07-29T02:10:53.534Z,19.3
2022-07-29T02:11:53.525Z,19.4
2022-07-29T02:12:53.520Z,19.4
2022-07-29T02:14:53.528Z,19.3
2022-07-29T02:15:53.577Z,19.3
2022-07-29T02:16:53.527Z,19.3
2022-07-29T02:18:53.542Z,19.3
2022-07-29T02:19:53.538Z,19.3
2022-07-29T02:20:53.532Z,19.3
2022-07-29T02:22:53.521Z,19.3
2022-07-29T02:23:53.532Z,19.4
2022-07-29T02:24:53.532Z,19.4
2022-07-29T02:25:53.538Z,19.4
2022-07-29T02:26:53.531Z,19.4
2022-07-29T02:28:53.527Z,19.4
2022-07-29T02:29:53.538Z,19.4
2022-07-29T02:31:53.535Z,19.3
2022-07-29T02:32:53.540Z,19.3
2022-07-29T02:33:53.549Z,19.3
2022-07-29T02:34:53.542Z,19.3
2022-07-29T02:35:53.534Z,19.2
2022-07-29T02:36:53.540Z,19.2
2022-07-29T02:37:53.532Z,19.1
2022-07-29T02:39:53.558Z,19.1
2022-07-29T02:40:53.532Z,19.1
2022-07-29T02:41:53.542Z,19
2022-07-29T02:42:53.530Z,19
2022-07-29T02:43:53.554Z,19
2022-07-29T02:44:53.533Z,19
2022-07-29T02:45:53.538Z,18.9
2022-07-29T02:47:53.563Z,18.9
2022-07-29T02:49:53.563Z,18.9
2022-07-29T02:50:53.552Z,18.9
2022-07-29T02:52:53.550Z,18.9
2022-07-29T02:53:53.545Z,18.9
2022-07-29T02:54:53.547Z,18.9
2022-07-29T02:55:53.563Z,18.9
2022-07-29T02:57:55.012Z,18.9
2022-07-29T02:58:53.555Z,18.9
2022-07-29T03:00:53.566Z,18.8
2022-07-29T03:01:53.604Z,18.8
2022-07-29T03:02:53.543Z,18.8
2022-07-29T03:03:53.562Z,18.8
2022-07-29T03:04:53.644Z,18.9
2022-07-29T03:05:53.547Z,18.9
2022-07-29T03:06:53.545Z,18.9
2022-07-29T03:07:53.581Z,18.9
2022-07-29T03:08:53.554Z,18.9
2022-07-29T03:10:53.551Z,19
2022-07-29T03:11:55.153Z,19
2022-07-29T03:13:53.558Z,19
2022-07-29T03:14:53.559Z,19
2022-07-29T03:15:53.621Z,19
2022-07-29T03:16:53.555Z,19
2022-07-29T03:17:53.554Z,18.9
2022-07-29T03:18:53.557Z,18.9
2022-07-29T03:19:53.563Z,18.9
2022-07-29T03:21:53.562Z,18.9
2022-07-29T03:22:53.562Z,18.9
2022-07-29T03:23:53.561Z,18.9
2022-07-29T03:24:53.559Z,18.8
2022-07-29T03:25:53.566Z,18.8
2022-07-29T03:26:53.570Z,18.8
2022-07-29T03:27:53.576Z,18.8
2022-07-29T03:28:53.564Z,18.7
2022-07-29T03:29:53.562Z,18.7
2022-07-29T03:30:53.609Z,18.7
2022-07-29T03:31:53.564Z,18.7
2022-07-29T03:32:53.570Z,18.8
2022-07-29T03:34:53.570Z,18.7
2022-07-29T03:36:53.566Z,18.7
2022-07-29T03:37:53.568Z,18.7
2022-07-29T03:38:53.568Z,18.6
2022-07-29T03:39:53.561Z,18.6
2022-07-29T03:40:53.567Z,18.6
2022-07-29T03:42:53.570Z,18.5
2022-07-29T03:43:53.583Z,18.5
2022-07-29T03:44:53.566Z,18.5
2022-07-29T03:45:53.635Z,18.5
2022-07-29T03:46:53.574Z,18.4
2022-07-29T03:47:58.420Z,18.4
2022-07-29T03:48:53.635Z,18.4
2022-07-29T03:49:53.577Z,18.4
2022-07-29T03:50:53.570Z,18.4
2022-07-29T03:52:53.565Z,18.4
2022-07-29T03:53:53.581Z,18.4
2022-07-29T03:55:53.576Z,18.5
2022-07-29T03:56:53.571Z,18.4
2022-07-29T03:57:53.576Z,18.4
2022-07-29T03:58:53.573Z,18.4
2022-07-29T03:59:53.598Z,18.3
2022-07-29T04:01:53.654Z,18.3
2022-07-29T04:03:53.608Z,18.3
2022-07-29T04:04:53.585Z,18.3
2022-07-29T04:06:53.580Z,18.3
2022-07-29T04:07:53.618Z,18.3
2022-07-29T04:08:53.586Z,18.4
2022-07-29T04:09:53.587Z,18.4
2022-07-29T04:10:53.580Z,18.4
2022-07-29T04:12:01.556Z,18.4
2022-07-29T04:12:53.588Z,18.4
2022-07-29T04:15:53.658Z,18.4
2022-07-29T04:16:53.591Z,18.4
2022-07-29T04:17:53.590Z,18.4
2022-07-29T04:18:53.590Z,18.4
2022-07-29T04:19:53.589Z,18.4
2022-07-29T04:20:53.586Z,18.4
2022-07-29T04:23:54.045Z,18.3
2022-07-29T04:24:53.593Z,18.3
2022-07-29T04:25:53.585Z,18.3
2022-07-29T04:27:53.602Z,18.2
2022-07-29T04:28:53.584Z,18.2
2022-07-29T04:29:56.789Z,18.2
2022-07-29T04:30:53.629Z,18.2
2022-07-29T04:31:53.603Z,18.2
2022-07-29T04:32:53.592Z,18.2
2022-07-29T04:33:53.593Z,18.2
2022-07-29T04:35:55.631Z,18.1
2022-07-29T04:36:53.593Z,18.1
2022-07-29T04:37:53.589Z,18
2022-07-29T04:38:53.601Z,18
2022-07-29T04:39:53.593Z,18
2022-07-29T04:41:54.946Z,18
2022-07-29T04:43:53.608Z,17.9
2022-07-29T04:46:53.609Z,17.7
2022-07-29T04:48:53.651Z,17.7
2022-07-29T04:49:53.599Z,17.8
2022-07-29T04:50:53.594Z,17.8
2022-07-29T04:52:53.615Z,17.8
2022-07-29T04:53:53.609Z,17.7
2022-07-29T04:54:53.602Z,17.7
2022-07-29T04:56:53.597Z,17.7
2022-07-29T04:57:53.611Z,17.7
2022-07-29T04:58:53.608Z,17.6
2022-07-29T04:59:53.649Z,17.6
2022-07-29T05:00:53.615Z,17.6
2022-07-29T05:01:53.658Z,17.7
2022-07-29T05:06:53.609Z,17.8
2022-07-29T05:07:53.602Z,17.8
2022-07-29T05:09:53.659Z,17.8
2022-07-29T05:11:53.609Z,17.7
2022-07-29T05:12:53.618Z,17.7
2022-07-29T05:13:53.616Z,17.7
2022-07-29T05:14:53.606Z,17.6
2022-07-29T05:18:53.608Z,17.6
2022-07-29T05:19:53.608Z,17.7
2022-07-29T05:20:53.609Z,17.6
2022-07-29T05:21:53.617Z,17.6
2022-07-29T05:22:53.605Z,17.7
2022-07-29T05:23:53.612Z,17.8
2022-07-29T05:24:53.607Z,17.8
2022-07-29T05:25:53.626Z,17.8
2022-07-29T05:27:53.610Z,17.7
2022-07-29T05:30:53.710Z,17.6
2022-07-29T05:31:53.610Z,17.6
2022-07-29T05:32:53.612Z,17.6
2022-07-29T05:33:53.643Z,17.7
2022-07-29T05:34:53.608Z,17.7
2022-07-29T05:35:56.242Z,17.7
2022-07-29T05:36:53.635Z,17.8
2022-07-29T05:40:53.637Z,18.1
2022-07-29T05:43:53.621Z,18.3
2022-07-29T05:44:53.628Z,18.3
2022-07-29T05:49:53.622Z,18.3
2022-07-29T05:51:53.628Z,18.2
2022-07-29T05:53:53.632Z,18.1
2022-07-29T05:54:53.624Z,18
2022-07-29T05:56:00.149Z,18
2022-07-29T05:56:53.644Z,17.9
2022-07-29T06:00:53.633Z,18
2022-07-29T06:01:53.694Z,18
2022-07-29T06:02:53.636Z,17.9
2022-07-29T06:03:53.771Z,17.9
2022-07-29T06:04:53.787Z,17.9
2022-07-29T06:05:53.642Z,17.8
2022-07-29T06:06:53.634Z,17.8
2022-07-29T06:07:53.640Z,17.8
2022-07-29T06:10:53.641Z,17.6
2022-07-29T06:12:53.634Z,17.7
2022-07-29T06:13:53.644Z,17.8
2022-07-29T06:15:53.674Z,17.7
2022-07-29T06:16:53.640Z,17.7
2022-07-29T06:18:53.645Z,17.8
2022-07-29T06:20:53.642Z,17.7
2022-07-29T06:21:53.634Z,17.7
2022-07-29T06:25:53.638Z,17.7
2022-07-29T06:26:53.644Z,17.7
2022-07-29T06:27:53.643Z,17.6
2022-07-29T06:28:53.641Z,17.6
2022-07-29T06:29:53.639Z,17.5
2022-07-29T06:30:53.719Z,17.5
2022-07-29T06:31:53.642Z,17.5
2022-07-29T06:33:54.688Z,17.5
2022-07-29T06:35:06.914Z,17.6
2022-07-29T06:35:55.279Z,17.7
2022-07-29T06:36:53.654Z,17.7
2022-07-29T06:38:53.711Z,17.7
2022-07-29T06:39:57.907Z,17.7
2022-07-29T06:41:53.652Z,17.8
2022-07-29T06:42:53.640Z,17.8
2022-07-29T06:43:55.254Z,17.8
2022-07-29T06:46:53.653Z,17.8
2022-07-29T06:47:53.651Z,17.8
2022-07-29T06:49:53.649Z,17.9
2022-07-29T06:50:53.660Z,17.9
2022-07-29T06:51:53.656Z,17.9
2022-07-29T06:52:53.662Z,17.9
2022-07-29T06:54:53.657Z,17.9
2022-07-29T06:56:53.654Z,17.9
2022-07-29T06:57:53.649Z,18
2022-07-29T06:58:53.651Z,18
2022-07-29T06:59:53.651Z,18
2022-07-29T07:00:53.694Z,18
2022-07-29T07:02:53.759Z,18.1
2022-07-29T07:04:53.668Z,18.2
2022-07-29T07:05:53.659Z,18.2
2022-07-29T07:07:53.659Z,18.1
2022-07-29T07:08:53.656Z,18.2
2022-07-29T07:09:53.685Z,18.2
2022-07-29T07:11:53.663Z,18.3
2022-07-29T07:13:53.659Z,18.3
2022-07-29T07:15:53.663Z,18.3
2022-07-29T07:16:53.688Z,18.3
2022-07-29T07:17:53.692Z,18.3
2022-07-29T07:18:53.657Z,18.3
2022-07-29T07:19:53.666Z,18.4
2022-07-29T07:20:53.669Z,18.4
2022-07-29T07:21:53.687Z,18.4
2022-07-29T07:23:53.664Z,18.5
2022-07-29T07:24:53.674Z,18.5
2022-07-29T07:25:53.671Z,18.5
2022-07-29T07:26:53.659Z,18.6
2022-07-29T07:27:53.671Z,18.5
2022-07-29T07:28:53.666Z,18.5
2022-07-29T07:29:53.672Z,18.5
2022-07-29T07:30:53.667Z,18.6
2022-07-29T07:31:57.562Z,18.7
2022-07-29T07:32:53.664Z,18.7
2022-07-29T07:34:53.670Z,18.7
2022-07-29T07:35:53.673Z,18.7
2022-07-29T07:36:53.671Z,18.7
2022-07-29T07:38:53.668Z,18.7
2022-07-29T07:39:53.686Z,18.7
2022-07-29T07:40:53.678Z,18.7
2022-07-29T07:42:53.677Z,18.7
2022-07-29T07:43:53.667Z,18.6
2022-07-29T07:45:12.479Z,18.7
2022-07-29T07:45:53.832Z,18.7
2022-07-29T07:48:53.782Z,18.6
2022-07-29T07:49:53.677Z,18.6
2022-07-29T07:50:53.683Z,18.6
2022-07-29T07:51:53.681Z,18.6
2022-07-29T07:52:53.679Z,18.6
2022-07-29T07:53:53.684Z,18.6
2022-07-29T07:56:09.968Z,18.6
2022-07-29T07:56:53.687Z,18.6
2022-07-29T07:57:54.069Z,18.6
2022-07-29T07:58:53.688Z,18.6
2022-07-29T07:59:53.675Z,18.6
2022-07-29T08:00:53.779Z,18.6
2022-07-29T08:02:53.714Z,18.6
2022-07-29T08:03:53.684Z,18.7
2022-07-29T08:04:53.685Z,18.7
2022-07-29T08:05:53.685Z,18.7
2022-07-29T08:06:53.689Z,18.7
2022-07-29T08:08:56.230Z,18.8
2022-07-29T08:09:53.704Z,18.8
2022-07-29T08:10:53.706Z,18.8
2022-07-29T08:11:53.683Z,18.8
2022-07-29T08:12:53.699Z,18.9
2022-07-29T08:13:53.684Z,19
2022-07-29T08:14:53.690Z,19.1
2022-07-29T08:17:53.692Z,19.2
2022-07-29T08:18:53.878Z,19.2
2022-07-29T08:19:53.693Z,19.3
2022-07-29T08:20:53.694Z,19.3
2022-07-29T08:21:54.102Z,19.3
2022-07-29T08:22:53.697Z,19.2
2022-07-29T08:24:00.688Z,19.2
2022-07-29T08:24:54.850Z,19.1
2022-07-29T08:25:54.924Z,19.1
2022-07-29T08:27:53.694Z,19
2022-07-29T08:29:53.694Z,19
2022-07-29T08:30:53.704Z,19
2022-07-29T08:31:54.173Z,19
2022-07-29T08:32:54.807Z,18.9
2022-07-29T08:33:53.698Z,18.9
2022-07-29T08:34:53.701Z,18.9
2022-07-29T08:35:53.695Z,18.9
2022-07-29T08:37:53.709Z,18.9
2022-07-29T08:38:53.718Z,18.9
2022-07-29T08:39:53.692Z,18.9
2022-07-29T08:40:53.694Z,18.9
2022-07-29T08:41:57.428Z,18.8
2022-07-29T08:42:53.706Z,18.8
2022-07-29T08:43:53.695Z,18.8
2022-07-29T08:44:53.717Z,18.8
2022-07-29T08:45:53.718Z,18.8
2022-07-29T08:46:53.700Z,18.8
2022-07-29T08:47:53.709Z,18.8
2022-07-29T08:48:53.775Z,18.7
2022-07-29T08:50:53.707Z,18.7
2022-07-29T08:52:59.394Z,18.7
2022-07-29T08:53:53.712Z,18.7
2022-07-29T08:54:53.721Z,18.7
2022-07-29T08:55:53.708Z,18.7
2022-07-29T08:56:54.901Z,18.6
2022-07-29T08:58:53.707Z,18.7
2022-07-29T08:59:53.714Z,18.7
2022-07-29T09:00:53.745Z,18.7
2022-07-29T09:01:54.212Z,18.7
2022-07-29T09:02:53.707Z,18.7
2022-07-29T09:03:53.725Z,18.7
2022-07-29T09:04:53.708Z,18.7
2022-07-29T09:06:53.706Z,18.6
2022-07-29T09:07:53.717Z,18.5
2022-07-29T09:08:53.711Z,18.5
2022-07-29T09:09:53.714Z,18.5
2022-07-29T09:11:53.975Z,18.5
2022-07-29T09:12:53.718Z,18.5
2022-07-29T09:13:53.780Z,18.5
2022-07-29T09:14:53.713Z,18.6
2022-07-29T09:15:53.714Z,18.6
2022-07-29T09:16:54.149Z,18.6
2022-07-29T09:17:53.722Z,18.7
2022-07-29T09:20:53.717Z,18.7
2022-07-29T09:21:53.718Z,18.7
2022-07-29T09:22:53.722Z,18.7
2022-07-29T09:23:53.720Z,18.7
2022-07-29T09:24:53.720Z,18.6
2022-07-29T09:25:53.722Z,18.6
2022-07-29T09:26:53.939Z,18.6
2022-07-29T09:27:53.728Z,18.6
2022-07-29T09:28:53.721Z,18.5
2022-07-29T09:32:53.725Z,18.6
2022-07-29T09:33:53.719Z,18.6
2022-07-29T09:34:58.261Z,18.6
2022-07-29T09:35:57.080Z,18.5
2022-07-29T09:36:53.993Z,18.5
2022-07-29T09:38:53.722Z,18.4
2022-07-29T09:39:53.723Z,18.4
2022-07-29T09:41:53.733Z,18.4
2022-07-29T09:42:53.743Z,18.4
2022-07-29T09:43:53.729Z,18.4
2022-07-29T09:44:53.730Z,18.3
2022-07-29T09:45:53.742Z,18.3
2022-07-29T09:46:54.136Z,18.2
2022-07-29T09:47:53.729Z,18.2
2022-07-29T09:48:53.787Z,18.2
2022-07-29T09:49:53.737Z,18.3
2022-07-29T09:51:53.735Z,18.3
2022-07-29T09:52:53.730Z,18.3
2022-07-29T09:53:53.768Z,18.3
2022-07-29T09:54:53.746Z,18.4
2022-07-29T09:55:53.727Z,18.4
2022-07-29T09:56:54.131Z,18.3
2022-07-29T09:57:53.739Z,18.4
2022-07-29T09:59:53.737Z,18.6
2022-07-29T10:00:53.832Z,18.6
2022-07-29T10:01:54.130Z,18.6
2022-07-29T10:02:53.833Z,18.7
2022-07-29T10:03:53.740Z,18.8
2022-07-29T10:04:53.734Z,18.8
2022-07-29T10:05:53.751Z,19
2022-07-29T10:06:53.744Z,19.1
2022-07-29T10:07:54.410Z,19.1
2022-07-29T10:08:53.744Z,19.2
2022-07-29T10:09:53.734Z,19.3
2022-07-29T10:10:53.758Z,19.4
2022-07-29T10:12:53.741Z,19.5
2022-07-29T10:13:53.743Z,19.5
2022-07-29T10:14:53.740Z,19.5
2022-07-29T10:15:53.791Z,19.4
2022-07-29T10:16:53.747Z,19.3
2022-07-29T10:17:53.788Z,19.2
2022-07-29T10:18:53.745Z,19.3
2022-07-29T10:20:53.744Z,19.3
2022-07-29T10:21:57.759Z,19.3
2022-07-29T10:22:54.308Z,19.2
2022-07-29T10:23:53.748Z,19.2
2022-07-29T10:24:53.751Z,19.2
2022-07-29T10:25:53.751Z,19.1
2022-07-29T10:26:53.755Z,19.1
2022-07-29T10:27:53.805Z,19.1
2022-07-29T10:28:53.757Z,19.2
2022-07-29T10:30:53.750Z,19.2
2022-07-29T10:31:53.992Z,19.2
2022-07-29T10:33:53.750Z,19.1
2022-07-29T10:34:53.774Z,19.2
2022-07-29T10:35:53.755Z,19.1
2022-07-29T10:36:53.751Z,19.2
2022-07-29T10:37:55.023Z,19.2
2022-07-29T10:41:54.032Z,19.2
2022-07-29T10:42:53.799Z,19.2
2022-07-29T10:44:53.758Z,19.3
2022-07-29T10:45:53.760Z,19.2
2022-07-29T10:46:53.862Z,19.2
2022-07-29T10:47:53.798Z,19.2
2022-07-29T10:48:53.800Z,19.1
2022-07-29T10:49:53.749Z,19.2
2022-07-29T10:50:53.761Z,19.2
2022-07-29T10:51:54.240Z,19.2
2022-07-29T10:52:53.782Z,19.2
2022-07-29T10:55:53.820Z,19.1
2022-07-29T10:56:53.761Z,19.1
2022-07-29T10:57:54.866Z,19.2
2022-07-29T10:58:53.765Z,19.2
2022-07-29T10:59:53.776Z,19.2
2022-07-29T11:00:53.781Z,19.2
2022-07-29T11:02:53.859Z,19.2
2022-07-29T11:03:53.938Z,19.2
2022-07-29T11:05:53.769Z,19.2
2022-07-29T11:06:53.771Z,19.3
2022-07-29T11:07:53.772Z,19.4
2022-07-29T11:09:53.762Z,19.5
2022-07-29T11:10:53.765Z,19.5
2022-07-29T11:11:53.768Z,19.5
2022-07-29T11:12:53.763Z,19.6
2022-07-29T11:13:53.775Z,19.7
2022-07-29T11:15:53.780Z,19.8
2022-07-29T11:16:53.773Z,19.8
2022-07-29T11:17:53.779Z,19.9
2022-07-29T11:19:53.775Z,20
2022-07-29T11:20:53.806Z,20.2
2022-07-29T11:23:53.778Z,20.6
2022-07-29T11:24:53.792Z,20.7
2022-07-29T11:26:57.506Z,20.8
2022-07-29T11:28:53.786Z,21.1
2022-07-29T11:29:53.777Z,21
2022-07-29T11:30:53.773Z,21.2
2022-07-29T11:31:53.867Z,21.3
2022-07-29T11:32:53.782Z,21.4
2022-07-29T11:33:56.361Z,21.3
2022-07-29T11:34:53.785Z,21.2
2022-07-29T11:37:57.791Z,21.2
2022-07-29T11:38:53.784Z,21.2
2022-07-29T11:40:53.783Z,21
2022-07-29T11:41:53.810Z,20.9
2022-07-29T11:42:53.781Z,20.9
2022-07-29T11:43:53.790Z,20.9
2022-07-29T11:44:53.782Z,20.9
2022-07-29T11:45:53.792Z,20.9
2022-07-29T11:46:54.277Z,21
2022-07-29T11:49:53.790Z,21
2022-07-29T11:50:53.787Z,21
2022-07-29T11:51:53.784Z,21.1
2022-07-29T11:52:53.814Z,21.2
2022-07-29T11:53:53.805Z,21.3
2022-07-29T11:54:58.090Z,21.3
2022-07-29T11:55:53.794Z,21.3
2022-07-29T11:58:53.796Z,21.4
2022-07-29T11:59:53.798Z,21.5
2022-07-29T12:00:55.622Z,21.5
2022-07-29T12:02:02.416Z,21.6
2022-07-29T12:02:53.863Z,21.7
2022-07-29T12:03:53.840Z,21.7
2022-07-29T12:04:53.789Z,21.8
2022-07-29T12:05:53.810Z,21.6
2022-07-29T12:06:53.806Z,21.6
2022-07-29T12:08:53.799Z,21.6
2022-07-29T12:10:53.796Z,21.6
2022-07-29T12:11:53.801Z,21.5
2022-07-29T12:12:53.802Z,21.6
2022-07-29T12:13:53.802Z,21.6
2022-07-29T12:14:53.808Z,21.5
2022-07-29T12:15:53.893Z,21.5
2022-07-29T12:16:53.868Z,21.5
2022-07-29T12:19:53.799Z,21.4
2022-07-29T12:20:53.797Z,21.4
2022-07-29T12:21:56.776Z,21.4
2022-07-29T12:22:53.806Z,21.5
2022-07-29T12:23:53.816Z,21.6
2022-07-29T12:25:02.215Z,21.6
2022-07-29T12:25:53.807Z,21.6
2022-07-29T12:26:53.823Z,21.6
2022-07-29T12:27:53.814Z,21.7
2022-07-29T12:28:54.787Z,21.8
2022-07-29T12:29:53.813Z,21.8
2022-07-29T12:31:53.848Z,21.8
2022-07-29T12:32:53.821Z,21.8
2022-07-29T12:33:53.809Z,21.9
2022-07-29T12:34:53.816Z,21.9
2022-07-29T12:36:06.153Z,22
2022-07-29T12:36:53.804Z,22
2022-07-29T12:37:53.814Z,22
2022-07-29T12:40:53.811Z,22.1
2022-07-29T12:41:53.815Z,22.1
2022-07-29T12:43:53.817Z,22.1
2022-07-29T12:44:53.816Z,22.1
2022-07-29T12:45:53.813Z,22.1
2022-07-29T12:46:53.881Z,22.1
2022-07-29T12:47:53.821Z,22.2
2022-07-29T12:48:53.859Z,22.3
2022-07-29T12:49:53.818Z,22.3
2022-07-29T12:50:53.824Z,22.3
2022-07-29T12:52:53.821Z,22.3
2022-07-29T12:53:53.825Z,22.3
2022-07-29T12:54:53.822Z,22.4
2022-07-29T12:55:53.829Z,22.4
2022-07-29T12:57:53.836Z,22.5
2022-07-29T12:58:53.826Z,22.5
2022-07-29T13:01:53.821Z,22.5
2022-07-29T13:02:53.912Z,22.5
2022-07-29T13:03:57.455Z,22.5
2022-07-29T13:04:53.829Z,22.5
2022-07-29T13:05:53.835Z,22.6
2022-07-29T13:06:53.829Z,22.5
2022-07-29T13:07:55.658Z,22.4
2022-07-29T13:08:53.836Z,22.4
2022-07-29T13:09:53.848Z,22.4
2022-07-29T13:10:53.838Z,22.5
2022-07-29T13:11:53.880Z,22.4
2022-07-29T13:14:06.001Z,22.5
2022-07-29T13:14:53.836Z,22.4
2022-07-29T13:15:53.838Z,22.5
2022-07-29T13:16:54.324Z,22.5
2022-07-29T13:17:53.830Z,22.5
2022-07-29T13:18:53.885Z,22.5
2022-07-29T13:19:53.837Z,22.5
2022-07-29T13:22:53.831Z,22.5
2022-07-29T13:23:53.835Z,22.5
2022-07-29T13:24:53.853Z,22.5
2022-07-29T13:25:53.842Z,22.5
2022-07-29T13:26:53.858Z,22.5
2022-07-29T13:27:53.846Z,22.5
2022-07-29T13:28:53.835Z,22.5
2022-07-29T13:29:53.861Z,22.5
2022-07-29T13:30:53.925Z,22.6
2022-07-29T13:31:53.845Z,22.6
2022-07-29T13:32:53.887Z,22.6
2022-07-29T13:34:53.849Z,22.6
2022-07-29T13:35:53.849Z,22.6
2022-07-29T13:37:53.844Z,22.7
2022-07-29T13:38:53.864Z,22.7
2022-07-29T13:39:53.845Z,22.9
2022-07-29T13:40:53.847Z,22.9
2022-07-29T13:43:53.848Z,22.9
2022-07-29T13:44:53.853Z,22.9
2022-07-29T13:45:53.922Z,23
2022-07-29T13:46:53.875Z,23
2022-07-29T13:47:53.847Z,22.9
2022-07-29T13:48:53.890Z,22.9
2022-07-29T13:49:53.844Z,23
2022-07-29T13:50:53.849Z,23
2022-07-29T13:53:53.859Z,23
2022-07-29T13:54:53.849Z,23
2022-07-29T13:55:53.846Z,23
2022-07-29T13:56:53.847Z,23
2022-07-29T13:57:53.859Z,23
2022-07-29T13:58:53.855Z,23
2022-07-29T13:59:54.585Z,23
2022-07-29T14:01:53.860Z,23.1
2022-07-29T14:02:53.867Z,23
2022-07-29T14:04:53.983Z,23
2022-07-29T14:05:53.860Z,23.1
2022-07-29T14:06:53.860Z,23.1
2022-07-29T14:07:53.867Z,23.1
2022-07-29T14:08:53.857Z,23.1
2022-07-29T14:09:53.872Z,23.1
2022-07-29T14:11:53.857Z,23
2022-07-29T14:15:53.872Z,23
2022-07-29T14:17:00.268Z,23.1
2022-07-29T14:17:53.874Z,23.1
2022-07-29T14:19:53.868Z,22.9
2022-07-29T14:20:53.886Z,22.9
2022-07-29T14:22:53.884Z,22.9
2022-07-29T14:25:53.885Z,22.8
2022-07-29T14:35:53.867Z,22.7
2022-07-29T14:36:53.873Z,22.8
2022-07-29T14:38:53.879Z,22.8
2022-07-29T14:40:53.889Z,22.8
2022-07-29T14:41:53.877Z,22.8
2022-07-29T14:43:53.872Z,22.8
2022-07-29T14:44:53.889Z,22.8
2022-07-29T14:45:57.544Z,22.8
2022-07-29T14:46:53.916Z,22.7
2022-07-29T14:47:57.165Z,22.7
2022-07-29T14:48:53.913Z,22.7
2022-07-29T14:49:53.873Z,22.7
2022-07-29T14:50:53.886Z,22.7
2022-07-29T14:51:53.881Z,22.8
2022-07-29T14:52:53.881Z,22.8
2022-07-29T14:53:53.890Z,22.8
2022-07-29T14:54:53.904Z,22.8
2022-07-29T14:57:58.673Z,22.8
2022-07-29T14:58:53.882Z,22.8
2022-07-29T15:00:53.979Z,22.9
2022-07-29T15:01:53.978Z,22.8
2022-07-29T15:03:02.625Z,22.8
2022-07-29T15:04:53.885Z,22.9
2022-07-29T15:05:53.899Z,22.9
2022-07-29T15:06:53.892Z,22.9
2022-07-29T15:07:53.902Z,22.9
2022-07-29T15:09:58.029Z,22.9
2022-07-29T15:10:53.886Z,22.9
2022-07-29T15:11:53.898Z,22.9
2022-07-29T15:12:53.891Z,22.9
2022-07-29T15:13:53.889Z,22.9
2022-07-29T15:15:58.291Z,23
2022-07-29T15:18:53.889Z,23.1
2022-07-29T15:19:53.915Z,23.1
2022-07-29T15:20:53.896Z,23.1
2022-07-29T15:21:54.854Z,23.1
2022-07-29T15:22:53.928Z,23.1
2022-07-29T15:23:53.912Z,23.1
2022-07-29T15:25:53.910Z,23.1
2022-07-29T15:26:53.907Z,23.1
2022-07-29T15:27:55.669Z,23
2022-07-29T15:28:53.906Z,23
2022-07-29T15:30:53.910Z,23
2022-07-29T15:31:53.945Z,23
2022-07-29T15:32:55.980Z,23
2022-07-29T15:33:58.091Z,23
2022-07-29T15:34:53.911Z,22.9
2022-07-29T15:35:53.902Z,22.9
2022-07-29T15:36:54.201Z,22.9
2022-07-29T15:39:58.296Z,22.9
2022-07-29T15:40:53.922Z,22.8
2022-07-29T15:41:53.915Z,22.8
2022-07-29T15:42:53.939Z,22.8
2022-07-29T15:43:53.914Z,22.9
2022-07-29T15:44:53.916Z,22.9
2022-07-29T15:45:53.954Z,22.9
2022-07-29T15:46:53.912Z,22.9
2022-07-29T15:47:53.908Z,22.9
2022-07-29T15:50:53.986Z,22.9
2022-07-29T15:51:58.206Z,23
2022-07-29T15:52:53.913Z,22.9
2022-07-29T15:53:53.918Z,23
2022-07-29T15:54:53.918Z,23
2022-07-29T15:55:53.912Z,23
2022-07-29T15:57:58.462Z,22.9
2022-07-29T15:58:53.912Z,22.9
2022-07-29T15:59:53.917Z,22.9
2022-07-29T16:00:54.027Z,22.9
2022-07-29T16:01:53.911Z,22.9
2022-07-29T16:02:53.915Z,22.8
2022-07-29T16:03:54.002Z,22.8
2022-07-29T16:04:53.918Z,22.8
2022-07-29T16:05:53.925Z,22.8
2022-07-29T16:06:53.958Z,22.8
2022-07-29T16:07:53.926Z,22.8
2022-07-29T16:08:53.920Z,22.8
2022-07-29T16:11:53.922Z,22.8
2022-07-29T16:14:53.986Z,22.8
2022-07-29T16:16:02.673Z,22.8
2022-07-29T16:16:54.080Z,22.8
2022-07-29T16:17:53.927Z,22.7
2022-07-29T16:18:53.937Z,22.8
2022-07-29T16:20:53.938Z,22.8
2022-07-29T16:22:53.947Z,22.8
2022-07-29T16:23:53.930Z,22.8
2022-07-29T16:26:01.602Z,22.8
2022-07-29T16:26:53.940Z,22.8
2022-07-29T16:27:58.114Z,22.8
2022-07-29T16:28:53.937Z,22.7
2022-07-29T16:29:53.936Z,22.7
2022-07-29T16:30:53.938Z,22.7
2022-07-29T16:32:53.984Z,22.8
2022-07-29T16:33:55.639Z,22.8
2022-07-29T16:34:53.959Z,22.8
2022-07-29T16:35:53.938Z,22.8
2022-07-29T16:36:53.945Z,22.8
2022-07-29T16:37:53.942Z,22.7
2022-07-29T16:38:53.945Z,22.8
2022-07-29T16:39:53.953Z,22.7
2022-07-29T16:40:53.953Z,22.7
2022-07-29T16:42:53.955Z,22.7
2022-07-29T16:43:53.949Z,22.8
2022-07-29T16:45:54.014Z,22.8
2022-07-29T16:47:58.500Z,22.8
2022-07-29T16:48:54.050Z,22.8
2022-07-29T16:49:53.955Z,22.8
2022-07-29T16:50:53.941Z,22.8
2022-07-29T16:51:53.945Z,22.8
2022-07-29T16:53:53.949Z,22.8
2022-07-29T16:55:53.951Z,22.8
2022-07-29T16:56:53.948Z,22.8
2022-07-29T16:57:53.958Z,22.8
2022-07-29T16:58:53.947Z,22.8
2022-07-29T16:59:53.947Z,22.8
2022-07-29T17:00:54.017Z,22.8
2022-07-29T17:01:54.047Z,22.8
2022-07-29T17:03:57.043Z,22.8
2022-07-29T17:04:53.967Z,22.8
2022-07-29T17:06:53.967Z,22.8
2022-07-29T17:07:53.967Z,22.8
2022-07-29T17:08:53.953Z,22.8
2022-07-29T17:09:56.402Z,22.8
2022-07-29T17:10:53.956Z,22.8
2022-07-29T17:11:54.880Z,22.8
2022-07-29T17:12:53.964Z,22.8
2022-07-29T17:14:53.959Z,22.8
2022-07-29T17:15:58.772Z,22.8
2022-07-29T17:17:01.319Z,22.8
2022-07-29T17:17:55.148Z,22.8
2022-07-29T17:19:53.963Z,22.8
2022-07-29T17:20:53.964Z,22.8